Time;durP1;ratioP1;P1;durP2;ratioP2;P2;SDS_P1;SDS_P2;PMS_P1;PMS_P2;Temp;Humidity;BMP_temperature;BMP_pressure;BME280_temperature;BME280_humidity;BME280_pressure;Samples;Min_cycle;Max_cycle;Signal;HPM_P1;HPM_P2
2024/03/29 05:20:13;;;;;;;2.20;0.80;;;9.70;58.10;;;;;;4496726;23;20067;-80
2024/03/29 05:22:15;;;;;;;2.70;0.77;;;9.60;58.10;;;;;;4090512;29;20131;-78
2024/03/29 05:24:17;;;;;;;2.75;0.80;;;9.50;58.10;;;;;;4093302;29;20040;-78
2024/03/29 05:26:18;;;;;;;2.05;0.88;;;9.50;58.50;;;;;;4086826;29;20043;-77
2024/03/29 05:28:21;;;;;;;2.67;0.75;;;9.50;58.30;;;;;;4086870;29;20561;-78
2024/03/29 05:30:24;;;;;;;4.10;1.05;;;9.50;58.30;;;;;;4087296;29;20528;-79
2024/03/29 05:32:26;;;;;;;2.33;0.80;;;9.50;58.10;;;;;;4087512;29;20047;-76
2024/03/29 05:34:26;;;;;;;2.17;0.70;;;9.50;58.70;;;;;;4086468;29;20056;-77
2024/03/29 05:36:30;;;;;;;2.70;0.90;;;9.60;59.20;;;;;;4094946;29;20107;-78
2024/03/29 05:38:32;;;;;;;3.22;1.00;;;9.60;59.20;;;;;;4086331;29;20050;-78
2024/03/29 05:40:34;;;;;;;2.47;1.05;;;9.60;58.70;;;;;;4087433;29;20103;-78
2024/03/29 05:42:37;;;;;;;1.92;0.80;;;9.50;59.00;;;;;;4087473;29;20110;-78
2024/03/29 05:44:39;;;;;;;4.70;1.00;;;9.40;59.30;;;;;;4087388;29;20052;-75
2024/03/29 05:46:41;;;;;;;1.80;0.70;;;9.20;60.70;;;;;;4084429;29;20054;-77
2024/03/29 05:48:43;;;;;;;2.28;0.80;;;9.00;62.60;;;;;;4103166;29;20524;-77
2024/03/29 05:50:45;;;;;;;2.83;0.80;;;9.00;62.10;;;;;;4087321;29;20106;-76
2024/03/29 05:52:48;;;;;;;2.33;0.88;;;9.00;60.80;;;;;;4099309;29;20047;-77
2024/03/29 05:54:50;;;;;;;2.05;0.70;;;9.00;61.10;;;;;;4095183;29;20055;-78
2024/03/29 05:56:52;;;;;;;3.15;0.80;;;9.00;60.10;;;;;;4086961;29;20185;-78
2024/03/29 05:58:54;;;;;;;3.55;0.90;;;9.10;59.50;;;;;;4086987;29;20106;-79
2024/03/29 06:00:56;;;;;;;1.55;0.50;;;9.20;59.40;;;;;;4093750;29;20551;-78
2024/03/29 06:02:58;;;;;;;3.50;0.60;;;9.30;58.80;;;;;;4092223;29;20111;-78
2024/03/29 06:05:00;;;;;;;2.40;0.70;;;9.40;57.60;;;;;;4103008;29;20106;-79
2024/03/29 06:07:02;;;;;;;0.82;0.40;;;9.50;56.90;;;;;;4094389;29;20051;-79
2024/03/29 06:09:06;;;;;;;1.88;0.70;;;9.60;56.40;;;;;;4086643;29;20465;-79
2024/03/29 06:11:07;;;;;;;2.45;0.80;;;9.70;57.20;;;;;;4087114;29;20047;-79
2024/03/29 06:13:17;;;;;;;2.45;0.90;;;9.70;57.40;;;;;;4086830;29;20457;-79
2024/03/29 06:17:37;;;;;;;1.95;0.80;;;9.90;57.90;;;;;;4086733;29;20062;-79
2024/03/29 06:19:39;;;;;;;2.10;0.80;;;10.00;59.50;;;;;;4086802;29;20052;-78
2024/03/29 06:21:42;;;;;;;3.20;0.85;;;10.00;59.10;;;;;;4086529;29;20047;-79
2024/03/29 06:23:44;;;;;;;2.05;0.88;;;10.00;59.70;;;;;;4082711;29;20132;-79
2024/03/29 06:25:47;;;;;;;2.00;0.88;;;10.10;60.30;;;;;;4086201;29;20055;-79
2024/03/29 06:27:49;;;;;;;2.17;0.70;;;10.10;58.90;;;;;;4087057;29;20078;-79
2024/03/29 06:29:50;;;;;;;2.28;0.90;;;10.10;59.90;;;;;;4086269;29;20059;-79
2024/03/29 06:31:54;;;;;;;3.22;0.90;;;10.10;60.50;;;;;;4086118;29;20048;-78
2024/03/29 06:33:57;;;;;;;2.92;0.90;;;10.10;60.40;;;;;;4086741;29;20450;-79
2024/03/29 06:35:59;;;;;;;2.25;0.90;;;10.20;60.60;;;;;;4086348;29;20143;-77
2024/03/29 06:38:00;;;;;;;2.38;0.88;;;10.10;60.00;;;;;;4085581;29;20047;-79
2024/03/29 06:40:03;;;;;;;2.50;0.98;;;10.20;60.90;;;;;;4086038;29;20130;-79
2024/03/29 06:42:07;;;;;;;2.95;0.98;;;10.20;61.80;;;;;;4095410;29;20051;-79
2024/03/29 06:44:08;;;;;;;2.92;1.23;;;10.30;63.00;;;;;;4086149;29;20134;-77
2024/03/29 06:46:11;;;;;;;3.53;1.27;;;10.30;63.10;;;;;;4086461;29;20074;-78
2024/03/29 06:48:12;;;;;;;3.03;1.30;;;10.30;63.10;;;;;;4084850;29;20047;-76
2024/03/29 06:50:14;;;;;;;4.57;1.38;;;10.30;63.10;;;;;;4074120;29;20536;-78
2024/03/29 06:52:16;;;;;;;3.17;1.38;;;10.30;62.70;;;;;;4097065;29;20047;-79
2024/03/29 06:54:22;;;;;;;3.17;1.20;;;10.30;62.70;;;;;;4084503;29;20059;-79
2024/03/29 06:56:24;;;;;;;3.13;1.27;;;10.30;63.20;;;;;;4086242;29;20052;-78
2024/03/29 06:58:27;;;;;;;4.03;1.60;;;10.40;63.10;;;;;;4086316;29;20043;-78
2024/03/29 07:00:29;;;;;;;2.92;1.20;;;10.40;62.90;;;;;;4101388;29;20460;-79
2024/03/29 07:02:31;;;;;;;3.40;1.50;;;10.40;62.70;;;;;;4085665;29;20047;-80
2024/03/29 07:04:31;;;;;;;4.20;1.60;;;10.40;63.40;;;;;;4086887;29;20048;-78
2024/03/29 07:06:33;;;;;;;4.18;1.60;;;10.30;60.80;;;;;;4088846;29;20107;-78
2024/03/29 07:08:36;;;;;;;4.40;1.83;;;10.30;62.40;;;;;;4085098;29;20099;-79
2024/03/29 07:10:38;;;;;;;3.95;1.50;;;10.30;62.40;;;;;;4085986;29;20068;-79
2024/03/29 07:12:40;;;;;;;4.30;1.60;;;10.30;62.80;;;;;;4086032;29;20048;-79
2024/03/29 07:14:43;;;;;;;4.03;1.52;;;10.20;62.30;;;;;;4085604;29;20047;-78
2024/03/29 07:16:44;;;;;;;5.78;1.83;;;10.10;61.80;;;;;;4095331;29;20051;-79
2024/03/29 07:18:46;;;;;;;2.90;1.23;;;10.10;62.60;;;;;;4086319;29;20047;-78
2024/03/29 07:20:47;;;;;;;3.97;1.20;;;10.10;62.80;;;;;;4083959;29;20060;-78
2024/03/29 07:22:49;;;;;;;4.05;1.30;;;10.00;65.30;;;;;;4085833;29;20048;-78
2024/03/29 07:24:50;;;;;;;3.08;1.25;;;10.10;65.90;;;;;;4084722;29;20098;-79
2024/03/29 07:26:51;;;;;;;2.67;1.13;;;10.10;66.50;;;;;;4087958;29;20051;-80
2024/03/29 07:28:53;;;;;;;3.22;1.38;;;10.00;67.50;;;;;;4086709;29;20093;-79
2024/03/29 07:30:57;;;;;;;4.13;1.13;;;10.00;66.30;;;;;;4085620;29;20051;-78
2024/03/29 07:32:59;;;;;;;2.17;1.02;;;10.00;68.60;;;;;;4085090;29;20461;-79
2024/03/29 07:35:00;;;;;;;5.03;1.40;;;10.00;68.80;;;;;;4085607;29;20043;-79
2024/03/29 07:37:02;;;;;;;2.88;1.13;;;9.90;69.50;;;;;;4083367;29;20138;-78
2024/03/29 07:39:06;;;;;;;5.25;1.00;;;9.80;73.40;;;;;;4086526;29;20047;-78
2024/03/29 07:41:09;;;;;;;3.25;1.00;;;9.70;72.50;;;;;;4085052;29;20082;-78
2024/03/29 07:43:13;;;;;;;2.67;1.10;;;9.70;72.80;;;;;;4086455;29;20405;-80
2024/03/29 07:45:15;;;;;;;3.42;1.10;;;9.50;76.60;;;;;;4092052;29;20054;-77
2024/03/29 07:47:21;;;;;;;2.10;0.80;;;9.50;76.80;;;;;;4088582;29;20039;-76
2024/03/29 07:49:22;;;;;;;6.72;1.20;;;9.30;75.50;;;;;;4085631;29;20048;-78
2024/03/29 07:51:24;;;;;;;2.58;1.17;;;9.30;76.90;;;;;;4085374;29;20051;-78
2024/03/29 07:53:25;;;;;;;3.25;1.30;;;9.40;74.90;;;;;;4085071;29;20052;-75
2024/03/29 07:55:27;;;;;;;2.75;1.23;;;9.50;76.30;;;;;;4085421;29;20096;-78
2024/03/29 07:57:28;;;;;;;3.03;1.20;;;9.60;78.80;;;;;;4085751;29;20111;-74
2024/03/29 07:59:29;;;;;;;3.20;1.10;;;9.40;79.80;;;;;;4085634;29;20051;-79
2024/03/29 08:01:31;;;;;;;3.20;1.10;;;9.50;79.30;;;;;;4085279;29;20363;-78
2024/03/29 08:03:34;;;;;;;3.30;1.33;;;9.50;78.80;;;;;;4084566;29;20048;-81
2024/03/29 08:05:36;;;;;;;2.85;1.33;;;9.50;83.00;;;;;;4081963;29;20096;-80
2024/03/29 08:07:38;;;;;;;3.17;1.17;;;9.50;83.10;;;;;;4084493;29;20409;-82
2024/03/29 08:09:40;;;;;;;4.82;1.60;;;9.60;83.40;;;;;;4086035;29;20047;-82
2024/03/29 08:11:42;;;;;;;3.22;1.30;;;9.70;84.80;;;;;;4084449;29;20051;-80
2024/03/29 08:13:43;;;;;;;2.88;1.48;;;9.90;86.40;;;;;;4100087;29;20047;-79
2024/03/29 08:15:44;;;;;;;3.28;1.30;;;9.90;85.00;;;;;;4088103;29;20537;-82
2024/03/29 08:17:46;;;;;;;2.92;1.30;;;9.90;81.80;;;;;;4084786;29;20055;-80
2024/03/29 08:19:50;;;;;;;4.90;1.45;;;9.80;83.50;;;;;;4084776;29;20067;-81
2024/03/29 08:21:52;;;;;;;3.10;1.30;;;9.80;82.90;;;;;;4085610;29;20537;-80
2024/03/29 08:23:54;;;;;;;3.53;1.33;;;9.80;84.40;;;;;;4084117;29;20102;-80
2024/03/29 08:25:56;;;;;;;4.15;1.30;;;10.00;84.00;;;;;;4096847;29;20146;-80
2024/03/29 08:27:59;;;;;;;3.38;1.40;;;10.00;83.50;;;;;;4095076;29;20047;-79
2024/03/29 08:30:01;;;;;;;4.18;1.35;;;10.10;82.60;;;;;;4085509;29;20062;-83
2024/03/29 08:32:03;;;;;;;4.32;1.40;;;10.00;83.10;;;;;;4085527;29;20482;-84
2024/03/29 08:34:06;;;;;;;3.00;1.30;;;10.10;84.60;;;;;;4085473;29;20051;-84
2024/03/29 08:36:11;;;;;;;2.88;1.20;;;10.10;84.00;;;;;;4069773;29;20127;-84
2024/03/29 08:38:13;;;;;;;3.75;1.42;;;10.30;85.60;;;;;;4069424;29;20080;-87
2024/03/29 08:40:15;;;;;;;3.60;1.52;;;10.30;86.30;;;;;;4069277;29;20056;-82
2024/03/29 08:42:17;;;;;;;4.78;1.80;;;10.40;86.50;;;;;;4069317;29;20048;-82
2024/03/29 08:44:19;;;;;;;4.97;1.88;;;10.50;85.70;;;;;;4069631;29;20470;-83
2024/03/29 08:46:21;;;;;;;5.60;2.10;;;10.60;85.30;;;;;;4099798;28;20390;-81
2024/03/29 08:48:25;;;;;;;4.47;1.60;;;10.60;85.50;;;;;;4083687;29;20048;-81
2024/03/29 08:50:27;;;;;;;4.47;1.80;;;10.60;85.80;;;;;;4095426;29;20075;-82
2024/03/29 08:52:30;;;;;;;5.70;1.98;;;10.40;86.30;;;;;;4085936;29;20048;-85
2024/03/29 08:54:32;;;;;;;4.95;1.80;;;10.50;85.70;;;;;;4084800;29;20107;-85
2024/03/29 08:56:36;;;;;;;4.40;2.00;;;10.50;85.50;;;;;;4082111;29;20059;-85
2024/03/29 08:58:38;;;;;;;4.50;1.60;;;10.60;87.00;;;;;;4087083;29;20052;-86
2024/03/29 09:00:40;;;;;;;4.75;1.85;;;10.70;87.60;;;;;;4087463;29;20398;-86
2024/03/29 09:02:42;;;;;;;4.00;1.75;;;10.70;89.30;;;;;;4069920;29;20060;-87
2024/03/29 09:04:44;;;;;;;3.97;1.95;;;10.80;88.50;;;;;;4085678;29;20052;-86
2024/03/29 09:06:46;;;;;;;4.78;1.80;;;10.90;88.70;;;;;;4086388;29;20449;-86
2024/03/29 09:08:49;;;;;;;5.70;1.80;;;11.00;87.80;;;;;;4087112;29;20054;-84
2024/03/29 09:10:51;;;;;;;4.47;1.60;;;11.00;88.00;;;;;;4085645;29;20416;-85
2024/03/29 09:12:52;;;;;;;4.93;2.08;;;11.00;89.00;;;;;;4094753;29;20055;-78
2024/03/29 09:14:54;;;;;;;4.13;1.88;;;11.10;89.30;;;;;;4086491;29;20054;-81
2024/03/29 09:16:56;;;;;;;5.18;1.95;;;11.10;89.80;;;;;;4085735;29;20488;-79
2024/03/29 09:18:59;;;;;;;5.07;1.60;;;11.20;89.90;;;;;;4085395;29;20497;-82
2024/03/29 09:21:01;;;;;;;21.30;12.07;;;11.20;89.80;;;;;;4075855;29;20062;-80
2024/03/29 09:23:04;;;;;;;5.43;2.25;;;11.30;89.30;;;;;;4080352;29;20044;-80
2024/03/29 09:25:10;;;;;;;5.75;1.70;;;11.30;88.10;;;;;;4076789;29;20044;-79
2024/03/29 09:27:13;;;;;;;7.15;3.47;;;11.30;87.40;;;;;;4073778;29;20145;-80
2024/03/29 09:29:16;;;;;;;4.38;1.80;;;11.40;87.30;;;;;;4064706;29;20100;-82
2024/03/29 09:31:18;;;;;;;3.72;1.70;;;11.30;85.30;;;;;;4079593;29;20047;-77
2024/03/29 09:33:20;;;;;;;3.92;1.60;;;11.30;84.80;;;;;;4077050;29;20063;-77
2024/03/29 09:35:22;;;;;;;5.18;2.05;;;11.30;84.60;;;;;;4074084;29;20056;-81
2024/03/29 09:37:25;;;;;;;4.68;1.85;;;11.30;86.00;;;;;;4070984;29;20561;-79
2024/03/29 09:39:27;;;;;;;4.05;1.77;;;11.30;85.00;;;;;;4074149;29;20496;-79
2024/03/29 09:41:34;;;;;;;3.38;1.65;;;11.40;84.30;;;;;;4075527;29;20064;-79
2024/03/29 09:43:36;;;;;;;3.50;1.60;;;11.40;84.10;;;;;;4077935;29;20138;-79
2024/03/29 09:45:39;;;;;;;3.72;1.70;;;11.50;85.40;;;;;;4073999;29;20051;-79
2024/03/29 09:47:43;;;;;;;5.30;1.55;;;11.60;84.90;;;;;;4077442;29;20043;-81
2024/03/29 09:49:47;;;;;;;6.90;2.00;;;11.70;83.60;;;;;;4073460;29;20741;-83
2024/03/29 09:51:50;;;;;;;4.15;1.77;;;11.80;81.80;;;;;;4087594;29;20054;-80
2024/03/29 09:53:52;;;;;;;4.43;1.92;;;12.00;82.50;;;;;;4078874;29;20044;-80
2024/03/29 09:55:54;;;;;;;5.03;2.28;;;12.10;83.70;;;;;;4078568;29;20111;-80
2024/03/29 09:57:59;;;;;;;4.20;2.10;;;12.00;81.40;;;;;;4070643;29;20810;-79
2024/03/29 10:00:04;;;;;;;9.25;4.72;;;12.00;81.80;;;;;;4076859;29;20079;-81
2024/03/29 10:02:16;;;;;;;9.70;3.42;;;12.10;83.40;;;;;;4082682;29;20060;-81
2024/03/29 10:04:19;;;;;;;7.28;3.40;;;12.20;83.50;;;;;;4078916;29;20501;-81
2024/03/29 10:06:21;;;;;;;6.10;3.10;;;12.30;83.40;;;;;;4083249;29;20458;-80
2024/03/29 10:08:23;;;;;;;5.13;2.55;;;12.40;82.60;;;;;;4080642;29;20066;-82
2024/03/29 10:10:25;;;;;;;6.38;2.90;;;12.40;82.30;;;;;;4085431;29;20142;-84
2024/03/29 10:12:28;;;;;;;5.07;2.15;;;12.50;82.70;;;;;;4072585;29;20107;-79
2024/03/29 10:14:32;;;;;;;5.53;2.20;;;12.50;80.90;;;;;;4083595;29;20756;-79
2024/03/29 10:16:33;;;;;;;3.90;2.00;;;12.40;80.40;;;;;;4076763;29;20086;-79
2024/03/29 10:18:35;;;;;;;5.22;2.30;;;12.60;81.80;;;;;;4083241;29;20484;-81
2024/03/29 10:20:36;;;;;;;4.00;2.05;;;12.70;81.90;;;;;;4071388;29;20120;-79
2024/03/29 10:22:43;;;;;;;5.28;1.80;;;12.80;81.10;;;;;;4075400;29;20051;-79
2024/03/29 10:24:45;;;;;;;4.35;1.48;;;13.00;82.10;;;;;;4078571;29;20481;-81
2024/03/29 10:26:47;;;;;;;4.50;2.05;;;13.10;80.40;;;;;;4067977;29;20063;-78
2024/03/29 10:28:51;;;;;;;4.90;1.75;;;13.20;80.80;;;;;;4076978;29;20048;-78
2024/03/29 10:30:56;;;;;;;3.90;1.67;;;13.30;80.20;;;;;;4074162;29;20071;-80
2024/03/29 10:32:58;;;;;;;4.32;1.40;;;13.40;79.20;;;;;;4078845;29;20051;-77
2024/03/29 10:35:02;;;;;;;3.28;1.20;;;13.50;76.30;;;;;;4080066;29;20051;-80
2024/03/29 10:37:05;;;;;;;3.97;1.17;;;13.50;74.60;;;;;;4074161;29;20095;-78
2024/03/29 10:39:12;;;;;;;4.75;1.48;;;13.60;74.40;;;;;;4077607;29;20052;-79
2024/03/29 10:41:14;;;;;;;5.18;1.25;;;13.60;73.30;;;;;;4070795;29;20522;-79
2024/03/29 10:43:18;;;;;;;4.13;1.30;;;13.60;74.30;;;;;;4072552;29;20111;-80
2024/03/29 10:45:21;;;;;;;2.88;1.23;;;13.70;74.10;;;;;;4075263;29;20111;-77
2024/03/29 10:47:25;;;;;;;4.18;1.60;;;13.70;76.30;;;;;;4071277;29;20056;-78
2024/03/29 10:49:30;;;;;;;7.07;2.83;;;13.70;75.90;;;;;;4076796;29;20044;-79
2024/03/29 10:51:33;;;;;;;4.95;1.70;;;13.80;75.90;;;;;;4077242;29;20473;-79
2024/03/29 10:53:37;;;;;;;3.00;1.17;;;13.80;74.60;;;;;;4072030;29;20391;-78
2024/03/29 10:55:39;;;;;;;2.03;0.85;;;13.90;74.50;;;;;;4071093;29;20052;-78
2024/03/29 10:57:43;;;;;;;3.10;1.20;;;13.90;74.10;;;;;;4080927;29;20048;-77
2024/03/29 10:59:56;;;;;;;3.70;1.10;;;13.90;73.40;;;;;;4076466;29;20047;-80
2024/03/29 11:02:01;;;;;;;4.18;1.08;;;14.00;73.70;;;;;;4080671;29;20044;-79
2024/03/29 11:04:11;;;;;;;;;;;13.90;73.00;;;;;;4077701;29;20524;-82
2024/03/29 11:06:16;;;;;;;2.65;1.00;;;14.00;73.10;;;;;;4089297;29;20265;-81
2024/03/29 11:08:23;;;;;;;3.65;1.10;;;14.00;73.20;;;;;;4084097;29;20051;-79
2024/03/29 11:10:30;;;;;;;2.17;0.82;;;14.00;72.70;;;;;;4082762;29;20051;-86
2024/03/29 11:12:48;;;;;;;3.10;1.33;;;14.00;72.50;;;;;;4071905;29;20048;-80
2024/03/29 11:15:04;;;;;;;4.70;1.70;;;14.10;72.50;;;;;;4065109;29;20435;-82
2024/03/29 11:17:07;;;;;;;6.38;3.10;;;14.10;70.70;;;;;;4068792;29;20104;-76
2024/03/29 11:19:11;;;;;;;3.58;1.20;;;14.10;71.00;;;;;;4086233;29;20048;-80
2024/03/29 11:21:18;;;;;;;3.42;1.20;;;14.20;71.60;;;;;;4074219;29;20056;-78
2024/03/29 11:23:20;;;;;;;5.43;1.65;;;14.10;71.00;;;;;;4054041;29;20562;-76
2024/03/29 11:25:23;;;;;;;3.13;1.10;;;14.20;70.90;;;;;;4071032;29;20483;-79
2024/03/29 11:27:25;;;;;;;4.15;2.15;;;14.20;70.80;;;;;;4076036;29;20482;-78
2024/03/29 11:29:32;;;;;;;4.38;2.20;;;14.20;70.70;;;;;;4075023;29;20059;-79
2024/03/29 11:31:39;;;;;;;4.13;2.10;;;14.20;71.80;;;;;;4069554;29;20063;-83
2024/03/29 11:33:48;;;;;;;2.53;1.10;;;14.20;72.40;;;;;;4081696;29;20525;-82
2024/03/29 11:35:51;;;;;;;2.97;1.20;;;14.20;72.50;;;;;;4075685;29;20494;-79
2024/03/29 11:37:58;;;;;;;3.38;1.08;;;14.30;72.00;;;;;;4079034;29;20522;-77
2024/03/29 11:40:01;;;;;;;2.80;1.10;;;14.30;71.90;;;;;;4074415;29;20572;-77
2024/03/29 11:42:02;;;;;;;2.10;0.90;;;14.30;71.80;;;;;;4072295;29;20075;-80
2024/03/29 11:44:06;;;;;;;3.13;0.90;;;14.30;71.50;;;;;;4075522;29;20406;-78
2024/03/29 11:46:10;;;;;;;3.00;0.80;;;14.30;71.80;;;;;;4068969;29;20048;-79
2024/03/29 11:48:15;;;;;;;2.83;0.90;;;14.30;70.00;;;;;;4071442;29;20052;-77
2024/03/29 11:50:17;;;;;;;2.67;1.10;;;14.40;70.80;;;;;;4071538;29;20048;-79
2024/03/29 11:52:20;;;;;;;2.38;0.98;;;14.40;70.60;;;;;;4070875;29;20379;-77
2024/03/29 11:54:23;;;;;;;3.03;1.00;;;14.60;69.80;;;;;;4072970;29;20796;-78
2024/03/29 11:56:24;;;;;;;4.90;1.70;;;14.70;68.10;;;;;;4074157;29;20134;-79
2024/03/29 11:58:27;;;;;;;3.13;1.30;;;14.90;66.80;;;;;;4070542;29;20178;-76
2024/03/29 12:00:29;;;;;;;1.92;0.80;;;15.10;66.30;;;;;;4074185;29;20055;-79
2024/03/29 12:02:33;;;;;;;2.38;0.93;;;15.40;64.60;;;;;;4074730;29;20058;-79
2024/03/29 12:04:34;;;;;;;4.60;1.40;;;15.50;65.10;;;;;;4074571;29;20063;-77
2024/03/29 12:06:38;;;;;;;3.60;1.25;;;15.60;64.60;;;;;;4071037;29;20056;-78
2024/03/29 12:08:42;;;;;;;3.65;1.42;;;15.70;64.90;;;;;;4071869;29;20126;-78
2024/03/29 12:10:45;;;;;;;2.08;0.93;;;15.80;64.90;;;;;;4067401;29;20051;-78
2024/03/29 12:12:46;;;;;;;3.08;1.17;;;15.90;63.30;;;;;;4069268;29;20474;-78
2024/03/29 12:14:50;;;;;;;3.05;0.77;;;16.00;64.80;;;;;;4074535;29;20044;-78
2024/03/29 12:16:53;;;;;;;2.47;0.70;;;16.00;62.70;;;;;;4071932;29;20130;-79
2024/03/29 12:18:55;;;;;;;1.60;0.70;;;16.10;63.30;;;;;;4077210;29;20083;-77
2024/03/29 12:20:57;;;;;;;2.70;1.00;;;16.20;62.70;;;;;;4074004;29;20477;-78
2024/03/29 12:23:01;;;;;;;3.22;1.38;;;16.30;62.50;;;;;;4074503;29;20052;-77
2024/03/29 12:25:05;;;;;;;3.60;1.30;;;16.30;62.30;;;;;;4071161;29;20056;-79
2024/03/29 12:27:07;;;;;;;2.53;0.88;;;16.40;62.60;;;;;;4073720;29;20051;-79
2024/03/29 12:29:09;;;;;;;3.92;1.38;;;16.40;61.80;;;;;;4067400;29;20473;-80
2024/03/29 12:31:11;;;;;;;2.80;1.10;;;16.50;63.30;;;;;;4074955;29;20048;-78
2024/03/29 12:33:14;;;;;;;4.32;1.50;;;16.60;61.90;;;;;;4071731;29;20103;-77
2024/03/29 12:35:17;;;;;;;4.55;2.50;;;16.70;61.00;;;;;;4071221;29;20082;-77
2024/03/29 12:37:19;;;;;;;2.60;1.08;;;16.90;60.40;;;;;;4077542;29;20051;-77
2024/03/29 12:39:21;;;;;;;3.70;1.15;;;17.10;58.70;;;;;;4080144;29;20048;-78
2024/03/29 12:41:24;;;;;;;2.22;0.95;;;17.20;58.50;;;;;;4082081;29;20055;-76
2024/03/29 12:43:26;;;;;;;2.50;0.95;;;17.20;57.60;;;;;;4073417;29;20075;-78
2024/03/29 12:45:28;;;;;;;2.78;1.10;;;17.20;58.40;;;;;;4068804;29;20581;-79
2024/03/29 12:47:33;;;;;;;3.15;1.10;;;17.30;57.20;;;;;;4077864;29;20051;-77
2024/03/29 12:49:35;;;;;;;2.80;1.20;;;17.20;57.20;;;;;;4081351;29;20059;-78
2024/03/29 12:51:40;;;;;;;3.13;1.20;;;17.20;57.10;;;;;;4067759;29;20083;-82
2024/03/29 12:53:41;;;;;;;3.23;1.20;;;17.20;57.10;;;;;;4071042;29;20055;-79
2024/03/29 12:55:45;;;;;;;4.43;1.35;;;17.10;56.80;;;;;;4070701;29;20055;-79
2024/03/29 12:57:47;;;;;;;3.10;1.27;;;17.00;56.30;;;;;;4069109;29;20490;-84
2024/03/29 12:59:50;;;;;;;2.78;1.08;;;17.10;57.40;;;;;;4073671;29;20052;-80
2024/03/29 13:01:53;;;;;;;2.63;1.08;;;17.40;57.10;;;;;;4067002;29;20056;-79
2024/03/29 13:03:55;;;;;;;3.53;1.10;;;17.50;56.30;;;;;;4072607;29;20058;-84
2024/03/29 13:05:57;;;;;;;2.65;1.10;;;17.70;56.10;;;;;;4075821;29;20103;-79
2024/03/29 13:07:59;;;;;;;3.17;1.05;;;17.90;56.40;;;;;;4075659;29;20107;-79
2024/03/29 13:10:03;;;;;;;4.15;1.20;;;18.00;55.60;;;;;;4069859;29;20052;-79
2024/03/29 13:12:06;;;;;;;2.33;1.10;;;18.10;55.10;;;;;;4073408;29;20059;-79
2024/03/29 13:14:09;;;;;;;3.10;1.08;;;18.30;55.80;;;;;;4068962;29;20048;-80
2024/03/29 13:16:11;;;;;;;3.33;1.30;;;18.50;54.80;;;;;;4070820;29;20048;-77
2024/03/29 13:18:16;;;;;;;3.80;1.40;;;18.50;54.20;;;;;;4069646;29;20040;-79
2024/03/29 13:20:19;;;;;;;3.85;1.50;;;18.70;53.60;;;;;;4072621;29;20055;-80
2024/03/29 13:22:20;;;;;;;2.92;1.30;;;18.80;53.70;;;;;;4073184;29;20047;-80
2024/03/29 13:24:22;;;;;;;3.90;1.23;;;19.10;53.10;;;;;;4067934;29;20124;-78
2024/03/29 13:26:23;;;;;;;3.25;1.20;;;19.30;51.40;;;;;;4066581;29;20048;-78
2024/03/29 13:28:25;;;;;;;2.30;1.05;;;19.30;51.10;;;;;;4072308;29;20100;-78
2024/03/29 13:30:29;;;;;;;3.33;1.10;;;19.50;51.20;;;;;;4066796;29;20052;-78
2024/03/29 13:32:32;;;;;;;3.17;1.23;;;19.70;51.50;;;;;;4071832;29;20052;-79
2024/03/29 13:34:34;;;;;;;2.90;1.10;;;19.80;49.30;;;;;;4074050;29;20063;-77
2024/03/29 13:36:36;;;;;;;3.33;1.20;;;19.90;50.20;;;;;;4070973;29;20104;-76
2024/03/29 13:38:39;;;;;;;3.17;1.15;;;20.20;49.30;;;;;;4070983;29;20115;-79
2024/03/29 13:40:40;;;;;;;2.60;1.10;;;20.40;49.60;;;;;;4072807;29;20052;-77
2024/03/29 13:42:43;;;;;;;4.32;1.20;;;20.50;48.30;;;;;;4076762;29;20051;-78
2024/03/29 13:44:44;;;;;;;3.88;0.90;;;20.70;48.30;;;;;;4073138;29;20056;-76
2024/03/29 13:46:48;;;;;;;2.85;1.00;;;21.10;49.00;;;;;;4079682;29;20044;-78
2024/03/29 13:48:49;;;;;;;3.28;1.23;;;21.40;47.70;;;;;;4076380;29;20052;-78
2024/03/29 13:50:51;;;;;;;2.72;1.10;;;21.70;46.40;;;;;;4074054;29;20387;-78
2024/03/29 13:52:54;;;;;;;2.45;1.10;;;22.00;45.30;;;;;;4073074;29;20044;-78
2024/03/29 13:54:56;;;;;;;2.60;0.85;;;22.00;44.80;;;;;;4069502;29;20047;-78
2024/03/29 13:56:58;;;;;;;2.55;1.10;;;22.30;45.30;;;;;;4073798;29;20047;-76
2024/03/29 13:59:00;;;;;;;2.88;1.10;;;22.60;45.10;;;;;;4079524;29;20059;-75
2024/03/29 14:01:02;;;;;;;4.30;1.17;;;22.80;44.10;;;;;;4074822;29;20051;-77
2024/03/29 14:03:05;;;;;;;2.38;1.10;;;23.00;43.20;;;;;;4070467;29;20068;-77
2024/03/29 14:05:07;;;;;;;3.72;1.23;;;23.30;42.90;;;;;;4070181;29;20474;-80
2024/03/29 14:07:10;;;;;;;2.92;1.10;;;23.70;42.60;;;;;;4075463;29;20054;-77
2024/03/29 14:09:13;;;;;;;3.10;1.05;;;24.30;41.80;;;;;;4077195;29;20052;-78
2024/03/29 14:11:18;;;;;;;2.92;1.15;;;25.20;39.00;;;;;;4080228;29;20066;-78
2024/03/29 14:13:20;;;;;;;2.67;1.15;;;26.80;35.80;;;;;;4075019;29;20115;-75
2024/03/29 14:15:22;;;;;;;2.13;1.10;;;28.40;33.80;;;;;;4076730;29;20048;-77
2024/03/29 14:17:23;;;;;;;2.92;1.10;;;29.40;32.00;;;;;;4072903;29;20090;-77
2024/03/29 14:19:28;;;;;;;11.10;6.38;;;30.30;31.40;;;;;;4068777;29;20056;-76
2024/03/29 14:21:30;;;;;;;7.70;3.38;;;31.50;29.40;;;;;;4071259;29;20055;-77
2024/03/29 14:23:32;;;;;;;2.65;1.30;;;32.90;28.60;;;;;;4077357;29;20126;-77
2024/03/29 14:25:33;;;;;;;2.83;1.60;;;33.20;27.40;;;;;;4077022;29;20466;-77
2024/03/29 14:27:42;;;;;;;5.88;1.90;;;33.80;27.00;;;;;;4068454;29;20395;-77
2024/03/29 14:29:44;;;;;;;2.60;1.13;;;33.30;26.30;;;;;;4077680;29;20147;-79
2024/03/29 14:31:45;;;;;;;2.08;1.10;;;32.70;26.80;;;;;;4068821;29;20486;-78
2024/03/29 14:33:47;;;;;;;6.28;3.10;;;32.00;27.30;;;;;;4073601;29;20079;-77
2024/03/29 14:35:50;;;;;;;2.97;1.38;;;31.40;27.50;;;;;;4073786;29;20478;-78
2024/03/29 14:37:52;;;;;;;3.20;1.50;;;30.40;28.10;;;;;;4074424;29;20098;-76
2024/03/29 14:39:53;;;;;;;3.55;1.20;;;29.30;29.20;;;;;;4074914;29;20052;-77
2024/03/29 14:41:58;;;;;;;2.80;1.08;;;28.30;29.80;;;;;;4075480;29;20079;-76
2024/03/29 14:44:00;;;;;;;3.10;1.40;;;28.00;30.20;;;;;;4073906;29;20127;-76
2024/03/29 14:46:02;;;;;;;3.72;1.25;;;28.90;30.00;;;;;;4073901;29;20087;-76
2024/03/29 14:48:05;;;;;;;2.80;0.93;;;29.60;29.90;;;;;;4071112;29;20048;-79
2024/03/29 14:50:08;;;;;;;2.08;1.05;;;29.10;29.60;;;;;;4069936;29;20048;-77
2024/03/29 14:52:11;;;;;;;3.83;1.10;;;28.80;29.50;;;;;;4075968;29;20044;-77
2024/03/29 14:54:12;;;;;;;2.97;1.27;;;28.20;29.70;;;;;;4073443;29;20147;-77
2024/03/29 14:56:14;;;;;;;2.70;1.13;;;28.50;30.10;;;;;;4076030;29;20047;-75
2024/03/29 14:58:16;;;;;;;3.22;1.23;;;28.60;29.70;;;;;;4075667;29;20044;-76
2024/03/29 15:00:19;;;;;;;3.63;1.27;;;28.70;29.40;;;;;;4076093;29;20474;-78
2024/03/29 15:02:21;;;;;;;3.38;1.10;;;28.60;29.70;;;;;;4070230;29;20058;-76
2024/03/29 15:04:22;;;;;;;5.10;2.42;;;28.30;29.90;;;;;;4068387;29;20052;-78
2024/03/29 15:06:24;;;;;;;4.57;2.33;;;28.50;30.10;;;;;;4080093;29;20055;-77
2024/03/29 15:08:28;;;;;;;2.50;1.00;;;28.40;30.30;;;;;;4074005;29;20104;-77
2024/03/29 15:10:28;;;;;;;2.72;1.00;;;28.20;30.20;;;;;;4070268;29;20108;-80
2024/03/29 15:12:31;;;;;;;2.22;1.00;;;28.00;30.40;;;;;;4068805;29;20060;-79
2024/03/29 15:14:35;;;;;;;2.22;0.98;;;27.70;30.90;;;;;;4073499;29;20565;-79
2024/03/29 15:16:35;;;;;;;3.53;1.10;;;27.60;31.20;;;;;;4076774;29;20087;-77
2024/03/29 15:18:38;;;;;;;2.83;1.00;;;27.30;32.00;;;;;;4070257;29;20188;-79
2024/03/29 15:20:40;;;;;;;3.70;1.25;;;27.10;32.10;;;;;;4080918;29;20148;-77
2024/03/29 15:22:45;;;;;;;2.85;1.10;;;26.70;32.00;;;;;;4070664;29;20106;-80
2024/03/29 15:24:48;;;;;;;2.63;1.10;;;26.20;32.40;;;;;;4068331;29;20054;-78
2024/03/29 15:26:53;;;;;;;3.67;0.93;;;25.90;32.90;;;;;;4069395;29;20044;-77
2024/03/29 15:31:16;;;;;;;4.03;1.20;;;25.20;34.60;;;;;;4068542;29;20557;-79
2024/03/29 15:33:18;;;;;;;2.25;0.82;;;24.70;35.30;;;;;;4068335;29;20058;-79
2024/03/29 15:35:20;;;;;;;3.58;1.17;;;24.30;35.90;;;;;;4074868;29;20095;-78
2024/03/29 15:37:21;;;;;;;3.83;1.30;;;24.00;36.60;;;;;;4068404;29;20052;-77
2024/03/29 15:39:24;;;;;;;2.40;1.00;;;23.70;36.90;;;;;;4069012;29;20056;-78
2024/03/29 15:41:27;;;;;;;5.65;3.35;;;23.40;37.70;;;;;;4068798;29;20108;-78
2024/03/29 15:43:30;;;;;;;3.13;1.40;;;23.00;37.70;;;;;;4070724;29;20095;-79
2024/03/29 15:45:31;;;;;;;3.00;1.08;;;22.80;38.90;;;;;;4068912;29;20048;-78
2024/03/29 15:47:34;;;;;;;4.30;1.20;;;22.60;39.40;;;;;;4068372;29;20111;-79
2024/03/29 15:49:36;;;;;;;3.10;1.10;;;22.30;39.80;;;;;;4080196;29;20476;-79
2024/03/29 15:51:38;;;;;;;2.70;1.00;;;22.10;41.10;;;;;;4067841;29;20041;-77
2024/03/29 15:53:39;;;;;;;3.22;1.30;;;21.90;41.50;;;;;;4074854;29;20055;-79
2024/03/29 15:55:42;;;;;;;3.67;1.33;;;21.70;41.70;;;;;;4070114;29;20678;-80
2024/03/29 15:57:45;;;;;;;5.03;2.70;;;21.50;42.40;;;;;;4074666;29;20056;-81
2024/03/29 15:59:47;;;;;;;4.60;1.60;;;21.30;43.00;;;;;;4074270;29;20059;-78
2024/03/29 16:01:49;;;;;;;3.88;1.80;;;21.10;43.60;;;;;;4067866;29;20477;-79
2024/03/29 16:03:51;;;;;;;3.08;1.30;;;21.00;44.00;;;;;;4075119;29;20048;-80